Crabtree, OR (97335)

3:27 PM PST on November 25, 2014 (GMT -0800)
Gilkey Road | Change Station
CLOSE
Current Station
Personal Weather Station
Location: Scio, OR
Elevation: 305 ft
Nearby Weather Stations

Elev 305 ft 44.70 °N, 122.86 °W | Updated 14 seconds ago

Overcast
Overcast
60.6 °F
Feels Like 60.6 °F
N
2.9
Wind Variable Wind from North
Gusts 10.0 mph

Today
High -- | Low -- °F
--% Chance of Precip.
Yesterday
High -- | Low -- °F
Precip. -- in
7:21 AM 4:35 PM
Waxing Crescent, 14% visible
Pressure 30.33 in
Visibility 10.0 miles
Clouds Scattered Clouds 1900 ft
Mostly Cloudy 2500 ft
Overcast 3900 ft
Dew Point 57 °F
Humidity 87%
Rainfall 0.00 in
Snow Depth Not available.
UV 0 out of 12
Pollen .10 out of 12
Air Quality Not available.
Flu Activity Not available.
METAR KSLE 252256Z 19010KT 10SM SCT019 BKN025 OVC039 16/13 A3033 RMK AO2 SLP269 T01610128

More Conditions Fewer Conditions

Pressure 30.33 in
Visibility 10.0 miles
Clouds Scattered Clouds 1900 ft
Mostly Cloudy 2500 ft
Overcast 3900 ft
Dew Point 57 °F
Humidity 87%
Rainfall 0.00 in
Snow Depth Not available.
UV 0 out of 12
Pollen .10 out of 12
Air Quality Not available.
Flu Activity Not available.
METAR KSLE 252256Z 19010KT 10SM SCT019 BKN025 OVC039 16/13 A3033 RMK AO2 SLP269 T01610128

More Conditions Fewer Conditions

10-Day Weather Forecast

Almanac

Astronomy

Nov. 25, 2014 Rise Set
Actual Time
Civil Twilight
Nautical Twilight
Astronomical Twilight
Moon
Length of Visible Light
Length of Day
Tomorrow will be .
, % of the Moon is Illuminated

Today's Extremes

State Highs State Lows

Community

WunderPhotos

Upload Photos

1,773,624 photos uploaded!

WunderBlogs® & News

Nearby

Air Quality

  Air Quality AQ Index Pollutant
Not available.

Snow Depth

Station Depth Elevation

Earthquake Activity

City Distance Mag. Time & Date
Minimum magnitude displayed is 2.5.

Coastal Water Temperatures

Place Temperature

Nearby Weather Stations